GCLA/SPC METAR and TAF weather

Enter ICAO airport designator
Station Type Date Time Source
GCLA METAR 2022/05/26 04:00 UTC NOAA

GCLA 260400Z AUTO 33010KT 290V360 9999 OVC047 19/13 Q1018


Station Type Date Time Source
GCLA Decoded METAR 2022/05/26 04:00 UTC NOAA

La Palma / Aeropuerto, Spain (GCLA) 28-37N 017-45W 31M
May 26, 2022 - 12:00 AM EDT / 2022.05.26 0400 UTC
Wind: from the NNW (330 degrees) at 12 MPH (10 KT) (direction variable):0
Visibility: greater than 7 mile(s):0
Sky conditions: overcast
Temperature: 66 F (19 C)
Dew Point: 55 F (13 C)
Relative Humidity: 68%
Pressure (altimeter): 30.06 in. Hg (1018 hPa)
ob: GCLA 260400Z AUTO 33010KT 290V360 9999 OVC047 19/13 Q1018
cycle: 4

Station Type Date Time Source
GCLA TAF 2022/05/26 03:28 UTC NOAA

TAF GCLA 260200Z 2603/2703 03012KT 9999 SCT035 TX24/2614Z TN20/2606Z PROB40
TEMPO 2603/2609 33009KT
TEMPO 2619/2703 33008KT

Example: see airport list